Lufkin, TX

12:25 AM CDT on April 30, 2017 (GMT -0500)
Inwood Terrace | | Change Station
Active Advisory: Lake Wind Advisory

Elev 280 ft 31.32 °N, 94.71 °W | Updated 4 seconds ago

Rain
Rain
67.8 °F
Feels Like 67.8 °F
N
0.9
Wind Variable Wind from SW
Gusts 2.5 mph

Today
High -- | Low -- °F
--% Chance of Precip.
Yesterday
High -- | Low -- °F
Precip. -- in
Pressure 29.73 in
Visibility 10.0 miles
Clouds Mostly Cloudy 600 ft
Overcast 1300 ft
Dew Point 66 °F
Humidity 92%
Rainfall 0.00 in
Snow Depth Not available.
6:34 AM 7:57 PM
Waxing Crescent, 19% visible
SPECI KLFK 300522Z AUTO 28016G23KT 10SM VCTS -RA BKN006 OVC013 17/16 A2973 RMK AO2 PK WND 25029/0459 WSHFT 0458 LTG DSNT NE-S RAB02 P0000 T01670161
Pressure 29.73 in
Visibility 10.0 miles
Clouds Mostly Cloudy 600 ft
Overcast 1300 ft
Dew Point 66 °F
Humidity 92%
Rainfall 0.00 in
Snow Depth Not available.
6:34 AM 7:57 PM
Waxing Crescent, 19% visible
SPECI KLFK 300522Z AUTO 28016G23KT 10SM VCTS -RA BKN006 OVC013 17/16 A2973 RMK AO2 PK WND 25029/0459 WSHFT 0458 LTG DSNT NE-S RAB02 P0000 T01670161

Get Your Daily Forecast Email!

Thanks for signing up!

Be on the lookout for a verification email in your inbox.

You'll start receiving severe weather alerts in your inbox..

×

10-Day Weather Forecast

Almanac

Astronomy

Apr. 30, 2017 Rise Set
Actual Time
Civil Twilight
Nautical Twilight
Astronomical Twilight
Moon
Length of Visible Light
Length of Day
Tomorrow will be .
, % of the Moon is Illuminated

Today's Extremes

State Highs State Lows

Community

WunderPhotos

WunderBlog® & News

Nearby

Air Quality

  Air Quality AQ Index Pollutant
Not available.

Snow Depth

Station Depth Elevation

Earthquake Activity

City Distance Mag. Time & Date
Minimum magnitude displayed is 2.5.

Coastal Water Temperatures

Place Temperature

Stations

Nearby Weather Stations

Station Location Temp. Windchill Dew Point Humidity Wind Precip. Elev Updated Type
                   

Watches & Warnings

Lake Wind Advisory
Issued: 3:10 PM CDT Apr. 29, 2017 – National Weather Service

... Lake Wind Advisory remains in effect until 7 am CDT Sunday...

* event... a very tight pressure gradient across the Southern
Plains will remain over the region, with strong southerly winds
of 15-25 mph with gusts to 35-40 mph continuing over all of
East Texas, extreme southern Arkansas, and north Louisiana today
and tonight.

* Timing... through 7 am CDT Sunday.

* Impact... boaters should exercise caution on area lakes due to
rough chop conditions.

Precautionary/preparedness actions...

A lake Wind Advisory indicates that winds will cause rough chop
on area lakes. Small boats will be especially prone to capsizing.



Palmer